createdAt,value
2017-12-20T00:00:18.254Z,1021.69
2017-12-20T00:01:18.189Z,1021.68
2017-12-20T00:02:18.072Z,1021.66
2017-12-20T00:03:17.984Z,1021.63
2017-12-20T00:04:17.925Z,1021.62
2017-12-20T00:05:17.816Z,1021.64
2017-12-20T00:06:17.731Z,1021.60
2017-12-20T00:07:17.623Z,1021.60
2017-12-20T00:08:17.550Z,1021.62
2017-12-20T00:09:17.466Z,1021.54
2017-12-20T00:10:17.364Z,1021.55
2017-12-20T00:11:17.277Z,1021.52
2017-12-20T00:12:17.176Z,1021.46
2017-12-20T00:13:17.091Z,1021.40
2017-12-20T00:14:17.008Z,1021.42
2017-12-20T00:15:16.914Z,1021.38
2017-12-20T00:16:16.825Z,1021.37
2017-12-20T00:17:16.733Z,1021.34
2017-12-20T00:18:16.648Z,1021.35
2017-12-20T00:19:16.551Z,1021.34
2017-12-20T00:20:16.460Z,1021.36
2017-12-20T00:21:16.370Z,1021.30
2017-12-20T00:22:16.282Z,1021.33
2017-12-20T00:23:16.195Z,1021.31
2017-12-20T00:24:16.098Z,1021.35
2017-12-20T00:25:16.022Z,1021.40
2017-12-20T00:26:16.283Z,1021.46
2017-12-20T00:27:15.845Z,1021.42
2017-12-20T00:28:15.756Z,1021.42
2017-12-20T00:29:15.651Z,1021.46
2017-12-20T00:30:15.558Z,1021.49
2017-12-20T00:31:15.472Z,1021.43
2017-12-20T00:32:15.393Z,1021.41
2017-12-20T00:33:15.298Z,1021.39
2017-12-20T00:34:15.211Z,1021.38
2017-12-20T00:35:15.115Z,1021.33
2017-12-20T00:36:15.030Z,1021.40
2017-12-20T00:37:14.937Z,1021.35
2017-12-20T00:38:14.845Z,1021.33
2017-12-20T00:39:14.759Z,1021.33
2017-12-20T00:40:14.663Z,1021.33
2017-12-20T00:41:14.572Z,1021.29
2017-12-20T00:42:14.497Z,1021.32
2017-12-20T00:43:14.412Z,1021.33
2017-12-20T00:44:14.307Z,1021.32
2017-12-20T00:45:14.220Z,1021.22
2017-12-20T00:46:14.138Z,1021.23
2017-12-20T00:47:14.039Z,1021.22
2017-12-20T00:48:13.972Z,1021.20
2017-12-20T00:49:13.867Z,1021.16
2017-12-20T00:50:13.764Z,1021.10
2017-12-20T00:51:13.677Z,1021.10
2017-12-20T00:52:13.592Z,1021.14
2017-12-20T00:53:13.490Z,1021.12
2017-12-20T00:54:13.413Z,1021.11
2017-12-20T00:55:13.309Z,1021.13
2017-12-20T00:56:13.226Z,1021.13
2017-12-20T00:57:13.133Z,1021.15
2017-12-20T00:58:13.052Z,1021.15
2017-12-20T00:59:12.970Z,1021.15
2017-12-20T01:00:12.869Z,1021.13
2017-12-20T01:01:12.789Z,1021.14
2017-12-20T01:02:12.688Z,1021.11
2017-12-20T01:03:12.597Z,1021.08
2017-12-20T01:04:12.516Z,1021.05
2017-12-20T01:05:12.414Z,1021.02
2017-12-20T01:06:12.333Z,1020.97
2017-12-20T01:07:12.237Z,1020.98
2017-12-20T01:08:12.147Z,1020.94
2017-12-20T01:09:12.055Z,1020.92
2017-12-20T01:10:11.964Z,1020.97
2017-12-20T01:11:11.879Z,1020.98
2017-12-20T01:12:11.785Z,1020.99
2017-12-20T01:13:11.704Z,1020.98
2017-12-20T01:14:11.603Z,1020.94
2017-12-20T01:15:11.520Z,1020.90
2017-12-20T01:16:11.424Z,1020.92
2017-12-20T01:17:11.335Z,1020.97
2017-12-20T01:18:11.245Z,1020.97
2017-12-20T01:19:11.153Z,1021.01
2017-12-20T01:20:11.065Z,1021.03
2017-12-20T01:21:10.997Z,1021.07
2017-12-20T01:22:10.884Z,1021.01
2017-12-20T01:23:10.790Z,1021.03
2017-12-20T01:24:10.702Z,1021.00
2017-12-20T01:25:10.864Z,1021.04
2017-12-20T01:26:10.524Z,1021.07
2017-12-20T01:27:10.433Z,1021.09
2017-12-20T01:28:10.344Z,1021.13
2017-12-20T01:29:10.256Z,1021.11
2017-12-20T01:30:10.163Z,1021.09
2017-12-20T01:31:10.072Z,1021.14
2017-12-20T01:32:09.979Z,1020.99
2017-12-20T01:33:09.891Z,1021.05
2017-12-20T01:34:09.806Z,1021.10
2017-12-20T01:35:09.725Z,1021.11
2017-12-20T01:36:09.620Z,1021.09
2017-12-20T01:37:09.542Z,1021.06
2017-12-20T01:38:09.440Z,1021.07
2017-12-20T01:39:09.353Z,1021.04
2017-12-20T01:40:09.262Z,1021.05
2017-12-20T01:41:09.168Z,1021.07
2017-12-20T01:42:09.077Z,1021.06
2017-12-20T01:43:08.993Z,1021.06
2017-12-20T01:44:08.902Z,1021.06
2017-12-20T01:45:08.810Z,1021.05
2017-12-20T01:46:08.721Z,1021.09
2017-12-20T01:47:08.635Z,1021.07
2017-12-20T01:48:08.547Z,1021.13
2017-12-20T01:49:08.452Z,1021.07
2017-12-20T01:50:08.359Z,1021.10
2017-12-20T01:51:08.267Z,1021.11
2017-12-20T01:52:08.186Z,1021.11
2017-12-20T01:53:08.088Z,1021.11
2017-12-20T01:54:08.002Z,1021.07
2017-12-20T01:55:07.911Z,1021.06
2017-12-20T01:56:07.826Z,1021.06
2017-12-20T01:57:07.732Z,1021.09
2017-12-20T01:58:07.645Z,1021.06
2017-12-20T01:59:07.553Z,1021.02
2017-12-20T02:00:07.467Z,1021.05
2017-12-20T02:01:07.399Z,1021.09
2017-12-20T02:02:07.283Z,1021.08
2017-12-20T02:03:07.195Z,1021.09
2017-12-20T02:04:07.104Z,1021.11
2017-12-20T02:05:07.014Z,1021.09
2017-12-20T02:06:06.927Z,1021.14
2017-12-20T02:07:06.830Z,1021.11
2017-12-20T02:08:06.749Z,1021.08
2017-12-20T02:09:06.664Z,1021.09
2017-12-20T02:10:06.568Z,1021.07
2017-12-20T02:11:06.473Z,1021.03
2017-12-20T02:12:06.389Z,1021.02
2017-12-20T02:13:06.295Z,1021.04
2017-12-20T02:14:06.205Z,1021.01
2017-12-20T02:15:06.116Z,1021.02
2017-12-20T02:16:06.026Z,1020.99
2017-12-20T02:17:05.935Z,1021.01
2017-12-20T02:18:05.851Z,1020.99
2017-12-20T02:19:05.758Z,1021.03
2017-12-20T02:20:05.669Z,1021.06
2017-12-20T02:21:05.576Z,1021.09
2017-12-20T02:22:05.489Z,1021.04
2017-12-20T02:23:05.398Z,1021.09
2017-12-20T02:24:05.458Z,1021.06
2017-12-20T02:25:05.222Z,1021.05
2017-12-20T02:26:05.135Z,1021.05
2017-12-20T02:27:05.041Z,1021.04
2017-12-20T02:28:04.964Z,1021.02
2017-12-20T02:29:04.863Z,1021.07
2017-12-20T02:30:04.775Z,1021.05
2017-12-20T02:31:04.682Z,1021.07
2017-12-20T02:32:04.593Z,1021.08
2017-12-20T02:33:04.514Z,1021.07
2017-12-20T02:34:04.413Z,1021.09
2017-12-20T02:35:04.325Z,1021.03
2017-12-20T02:36:04.238Z,1021.07
2017-12-20T02:37:04.163Z,1021.04
2017-12-20T02:38:04.068Z,1021.05
2017-12-20T02:39:03.977Z,1021.08
2017-12-20T02:40:03.887Z,1021.09
2017-12-20T02:41:03.803Z,1021.14
2017-12-20T02:42:03.699Z,1021.14
2017-12-20T02:43:03.608Z,1021.13
2017-12-20T02:44:03.527Z,1021.10
2017-12-20T02:45:03.432Z,1021.05
2017-12-20T02:46:03.341Z,1021.06
2017-12-20T02:47:03.258Z,1021.04
2017-12-20T02:48:03.164Z,1021.03
2017-12-20T02:49:03.072Z,1021.03
2017-12-20T02:50:03.000Z,1021.02
2017-12-20T02:51:02.903Z,1020.96
2017-12-20T02:52:02.809Z,1020.96
2017-12-20T02:53:02.711Z,1020.89
2017-12-20T02:54:02.622Z,1020.89
2017-12-20T02:55:02.535Z,1020.90
2017-12-20T02:56:02.453Z,1020.82
2017-12-20T02:57:02.355Z,1020.87
2017-12-20T02:58:02.268Z,1020.83
2017-12-20T02:59:02.178Z,1020.82
2017-12-20T03:00:02.087Z,1020.79
2017-12-20T03:01:02.000Z,1020.81
2017-12-20T03:02:01.913Z,1020.82
2017-12-20T03:03:01.824Z,1020.84
2017-12-20T03:04:01.740Z,1020.79
2017-12-20T03:05:01.661Z,1020.81
2017-12-20T03:06:01.568Z,1020.80
2017-12-20T03:07:01.480Z,1020.81
2017-12-20T03:08:01.394Z,1020.76
2017-12-20T03:09:01.298Z,1020.74
2017-12-20T03:10:01.194Z,1020.76
2017-12-20T03:11:01.109Z,1020.86
2017-12-20T03:12:01.017Z,1020.81
2017-12-20T03:13:00.934Z,1020.81
2017-12-20T03:14:00.841Z,1020.81
2017-12-20T03:15:00.756Z,1020.85
2017-12-20T03:16:00.661Z,1020.86
2017-12-20T03:17:00.585Z,1020.88
2017-12-20T03:18:00.491Z,1020.85
2017-12-20T03:19:00.391Z,1020.78
2017-12-20T03:20:00.302Z,1020.84
2017-12-20T03:21:00.213Z,1020.76
2017-12-20T03:22:00.119Z,1020.80
2017-12-20T03:23:00.066Z,1020.75
2017-12-20T03:23:59.947Z,1020.72
2017-12-20T03:24:59.857Z,1020.68
2017-12-20T03:25:59.770Z,1020.72
2017-12-20T03:26:59.679Z,1020.69
2017-12-20T03:27:59.594Z,1020.71
2017-12-20T03:28:59.499Z,1020.65
2017-12-20T03:29:59.419Z,1020.69
2017-12-20T03:30:59.316Z,1020.68
2017-12-20T03:31:59.226Z,1020.68
2017-12-20T03:32:59.134Z,1020.69
2017-12-20T03:33:59.048Z,1020.66
2017-12-20T03:34:58.960Z,1020.69
2017-12-20T03:35:58.872Z,1020.70
2017-12-20T03:36:58.776Z,1020.70
2017-12-20T03:37:58.686Z,1020.67
2017-12-20T03:38:58.600Z,1020.62
2017-12-20T03:39:58.524Z,1020.66
2017-12-20T03:40:58.418Z,1020.65
2017-12-20T03:41:58.326Z,1020.66
2017-12-20T03:42:58.243Z,1020.64
2017-12-20T03:43:58.157Z,1020.63
2017-12-20T03:44:58.054Z,1020.65
2017-12-20T03:45:57.963Z,1020.59
2017-12-20T03:46:57.889Z,1020.60
2017-12-20T03:47:57.787Z,1020.61
2017-12-20T03:48:57.723Z,1020.63
2017-12-20T03:49:57.605Z,1020.67
2017-12-20T03:50:57.521Z,1020.58
2017-12-20T03:51:57.426Z,1020.56
2017-12-20T03:52:57.342Z,1020.55
2017-12-20T03:53:57.247Z,1020.57
2017-12-20T03:54:57.163Z,1020.58
2017-12-20T03:55:57.077Z,1020.57
2017-12-20T03:56:56.980Z,1020.53
2017-12-20T03:57:56.884Z,1020.54
2017-12-20T03:58:56.800Z,1020.50
2017-12-20T03:59:56.707Z,1020.50
2017-12-20T04:00:56.627Z,1020.54
2017-12-20T04:01:56.533Z,1020.51
2017-12-20T04:02:56.430Z,1020.45
2017-12-20T04:03:56.352Z,1020.46
2017-12-20T04:04:56.278Z,1020.44
2017-12-20T04:05:56.184Z,1020.40
2017-12-20T04:06:56.075Z,1020.44
2017-12-20T04:07:55.987Z,1020.41
2017-12-20T04:08:55.898Z,1020.43
2017-12-20T04:09:55.812Z,1020.43
2017-12-20T04:10:55.716Z,1020.43
2017-12-20T04:11:55.628Z,1020.44
2017-12-20T04:12:55.542Z,1020.47
2017-12-20T04:13:55.452Z,1020.48
2017-12-20T04:14:55.359Z,1020.49
2017-12-20T04:15:55.269Z,1020.47
2017-12-20T04:16:55.192Z,1020.45
2017-12-20T04:17:55.095Z,1020.45
2017-12-20T04:18:55.005Z,1020.41
2017-12-20T04:19:54.920Z,1020.43
2017-12-20T04:20:54.855Z,1020.40
2017-12-20T04:21:54.735Z,1020.39
2017-12-20T04:22:54.645Z,1020.43
2017-12-20T04:23:54.551Z,1020.36
2017-12-20T04:24:54.471Z,1020.38
2017-12-20T04:25:54.371Z,1020.41
2017-12-20T04:26:54.298Z,1020.41
2017-12-20T04:27:54.199Z,1020.45
2017-12-20T04:28:54.113Z,1020.43
2017-12-20T04:29:54.023Z,1020.41
2017-12-20T04:30:53.929Z,1020.41
2017-12-20T04:31:53.843Z,1020.42
2017-12-20T04:32:53.756Z,1020.43
2017-12-20T04:33:53.668Z,1020.45
2017-12-20T04:34:53.576Z,1020.44
2017-12-20T04:35:53.484Z,1020.44
2017-12-20T04:36:53.398Z,1020.38
2017-12-20T04:37:53.312Z,1020.33
2017-12-20T04:38:53.219Z,1020.36
2017-12-20T04:39:53.141Z,1020.34
2017-12-20T04:40:53.038Z,1020.33
2017-12-20T04:41:52.966Z,1020.30
2017-12-20T04:42:52.862Z,1020.29
2017-12-20T04:43:52.776Z,1020.32
2017-12-20T04:44:52.695Z,1020.35
2017-12-20T04:45:52.607Z,1020.39
2017-12-20T04:46:52.529Z,1020.41
2017-12-20T04:47:52.433Z,1020.43
2017-12-20T04:48:52.341Z,1020.46
2017-12-20T04:49:52.236Z,1020.48
2017-12-20T04:50:52.147Z,1020.45
2017-12-20T04:51:52.946Z,1020.42
2017-12-20T04:52:51.973Z,1020.38
2017-12-20T04:53:51.883Z,1020.36
2017-12-20T04:54:51.791Z,1020.40
2017-12-20T04:55:51.702Z,1020.32
2017-12-20T04:56:51.609Z,1020.31
2017-12-20T04:57:51.524Z,1020.29
2017-12-20T04:58:51.433Z,1020.29
2017-12-20T04:59:51.340Z,1020.27
2017-12-20T05:00:51.255Z,1020.23
2017-12-20T05:01:51.164Z,1020.24
2017-12-20T05:02:51.084Z,1020.26
2017-12-20T05:03:50.986Z,1020.19
2017-12-20T05:04:50.895Z,1020.24
2017-12-20T05:05:50.802Z,1020.23
2017-12-20T05:06:50.715Z,1020.23
2017-12-20T05:07:50.626Z,1020.27
2017-12-20T05:08:50.539Z,1020.26
2017-12-20T05:09:50.450Z,1020.32
2017-12-20T05:10:50.350Z,1020.35
2017-12-20T05:11:50.272Z,1020.36
2017-12-20T05:12:50.175Z,1020.36
2017-12-20T05:13:50.090Z,1020.38
2017-12-20T05:14:50.004Z,1020.35
2017-12-20T05:15:49.912Z,1020.39
2017-12-20T05:16:49.824Z,1020.38
2017-12-20T05:17:49.733Z,1020.36
2017-12-20T05:18:49.651Z,1020.40
2017-12-20T05:19:49.549Z,1020.42
2017-12-20T05:20:49.455Z,1020.41
2017-12-20T05:21:49.374Z,1020.38
2017-12-20T05:22:49.280Z,1020.41
2017-12-20T05:23:49.192Z,1020.39
2017-12-20T05:24:49.104Z,1020.36
2017-12-20T05:25:49.020Z,1020.38
2017-12-20T05:26:48.925Z,1020.40
2017-12-20T05:27:48.832Z,1020.44
2017-12-20T05:28:48.743Z,1020.41
2017-12-20T05:29:48.657Z,1020.47
2017-12-20T05:30:48.570Z,1020.48
2017-12-20T05:31:48.479Z,1020.49
2017-12-20T05:32:48.383Z,1020.51
2017-12-20T05:33:48.300Z,1020.54
2017-12-20T05:34:48.219Z,1020.57
2017-12-20T05:35:48.113Z,1020.55
2017-12-20T05:36:48.035Z,1020.59
2017-12-20T05:37:47.943Z,1020.60
2017-12-20T05:38:47.850Z,1020.62
2017-12-20T05:39:47.759Z,1020.61
2017-12-20T05:40:47.671Z,1020.61
2017-12-20T05:41:47.587Z,1020.62
2017-12-20T05:42:47.500Z,1020.62
2017-12-20T05:43:47.400Z,1020.58
2017-12-20T05:44:47.315Z,1020.59
2017-12-20T05:45:47.223Z,1020.63
2017-12-20T05:46:47.133Z,1020.58
2017-12-20T05:47:47.063Z,1020.64
2017-12-20T05:48:46.965Z,1020.70
2017-12-20T05:49:46.889Z,1020.65
2017-12-20T05:50:47.530Z,1020.68
2017-12-20T05:51:46.687Z,1020.73
2017-12-20T05:52:46.595Z,1020.72
2017-12-20T05:53:46.510Z,1020.71
2017-12-20T05:54:46.420Z,1020.70
2017-12-20T05:55:46.331Z,1020.75
2017-12-20T05:56:46.234Z,1020.70
2017-12-20T05:57:46.158Z,1020.72
2017-12-20T05:58:46.064Z,1020.76
2017-12-20T05:59:45.982Z,1020.75
2017-12-20T06:00:45.883Z,1020.73
2017-12-20T06:01:45.816Z,1020.75
2017-12-20T06:02:45.704Z,1020.71
2017-12-20T06:03:45.623Z,1020.69
2017-12-20T06:04:45.527Z,1020.66
2017-12-20T06:05:45.435Z,1020.68
2017-12-20T06:06:45.354Z,1020.66
2017-12-20T06:07:45.255Z,1020.64
2017-12-20T06:08:45.165Z,1020.65
2017-12-20T06:09:45.080Z,1020.65
2017-12-20T06:10:44.985Z,1020.65
2017-12-20T06:11:44.896Z,1020.61
2017-12-20T06:12:44.818Z,1020.64
2017-12-20T06:13:44.720Z,1020.61
2017-12-20T06:14:44.629Z,1020.68
2017-12-20T06:15:44.561Z,1020.64
2017-12-20T06:16:44.449Z,1020.63
2017-12-20T06:17:44.359Z,1020.62
2017-12-20T06:18:44.271Z,1020.60
2017-12-20T06:19:44.179Z,1020.64
2017-12-20T06:20:44.093Z,1020.62
2017-12-20T06:21:44.003Z,1020.60
2017-12-20T06:22:43.910Z,1020.57
2017-12-20T06:23:43.841Z,1020.62
2017-12-20T06:24:43.734Z,1020.66
2017-12-20T06:25:43.652Z,1020.64
2017-12-20T06:26:43.553Z,1020.65
2017-12-20T06:27:43.457Z,1020.63
2017-12-20T06:28:43.368Z,1020.64
2017-12-20T06:29:43.282Z,1020.66
2017-12-20T06:30:43.188Z,1020.63
2017-12-20T06:31:43.096Z,1020.59
2017-12-20T06:32:43.032Z,1020.62
2017-12-20T06:33:42.936Z,1020.64
2017-12-20T06:34:42.835Z,1020.65
2017-12-20T06:35:42.750Z,1020.59
2017-12-20T06:36:42.656Z,1020.60
2017-12-20T06:37:42.573Z,1020.58
2017-12-20T06:38:42.481Z,1020.59
2017-12-20T06:39:42.396Z,1020.62
2017-12-20T06:40:42.303Z,1020.61
2017-12-20T06:41:42.220Z,1020.62
2017-12-20T06:42:42.125Z,1020.61
2017-12-20T06:43:42.028Z,1020.59
2017-12-20T06:44:41.948Z,1020.57
2017-12-20T06:45:41.879Z,1020.55
2017-12-20T06:46:41.766Z,1020.55
2017-12-20T06:47:41.675Z,1020.55
2017-12-20T06:48:41.586Z,1020.64
2017-12-20T06:49:42.091Z,1020.56
2017-12-20T06:50:41.416Z,1020.59
2017-12-20T06:51:41.319Z,1020.51
2017-12-20T06:52:41.253Z,1020.53
2017-12-20T06:53:41.153Z,1020.57
2017-12-20T06:54:41.046Z,1020.59
2017-12-20T06:55:40.964Z,1020.56
2017-12-20T06:56:40.870Z,1020.48
2017-12-20T06:57:40.782Z,1020.54
2017-12-20T06:58:40.693Z,1020.52
2017-12-20T06:59:40.599Z,1020.55
2017-12-20T07:00:40.508Z,1020.58
2017-12-20T07:01:40.426Z,1020.63
2017-12-20T07:02:40.348Z,1020.59
2017-12-20T07:03:40.247Z,1020.67
2017-12-20T07:04:40.153Z,1020.65
2017-12-20T07:05:40.071Z,1020.61
2017-12-20T07:06:39.976Z,1020.63
2017-12-20T07:07:39.890Z,1020.68
2017-12-20T07:08:39.789Z,1020.67
2017-12-20T07:09:39.723Z,1020.65
2017-12-20T07:10:39.631Z,1020.61
2017-12-20T07:11:39.527Z,1020.57
2017-12-20T07:12:39.435Z,1020.57
2017-12-20T07:13:39.342Z,1020.61
2017-12-20T07:14:39.257Z,1020.58
2017-12-20T07:15:39.169Z,1020.68
2017-12-20T07:16:39.092Z,1020.72
2017-12-20T07:17:39.000Z,1020.76
2017-12-20T07:18:38.911Z,1020.76
2017-12-20T07:19:38.808Z,1020.79
2017-12-20T07:20:38.716Z,1020.76
2017-12-20T07:21:38.625Z,1020.80
2017-12-20T07:22:38.547Z,1020.80
2017-12-20T07:23:38.456Z,1020.86
2017-12-20T07:24:38.360Z,1020.83
2017-12-20T07:25:38.275Z,1020.84
2017-12-20T07:26:38.184Z,1020.88
2017-12-20T07:27:38.105Z,1020.93
2017-12-20T07:28:38.006Z,1020.93
2017-12-20T07:29:37.920Z,1020.97
2017-12-20T07:30:37.826Z,1020.94
2017-12-20T07:31:37.733Z,1020.97
2017-12-20T07:32:37.646Z,1020.96
2017-12-20T07:33:37.560Z,1020.99
2017-12-20T07:34:37.468Z,1020.97
2017-12-20T07:35:37.384Z,1020.95
2017-12-20T07:36:37.299Z,1021.00
2017-12-20T07:37:37.203Z,1020.96
2017-12-20T07:38:37.113Z,1021.00
2017-12-20T07:39:37.023Z,1021.01
2017-12-20T07:40:36.927Z,1021.00
2017-12-20T07:41:36.851Z,1020.96
2017-12-20T07:42:36.770Z,1021.02
2017-12-20T07:43:36.671Z,1021.00
2017-12-20T07:44:36.576Z,1021.04
2017-12-20T07:45:36.485Z,1021.01
2017-12-20T07:46:36.399Z,1021.04
2017-12-20T07:47:36.310Z,1021.02
2017-12-20T07:48:36.667Z,1020.99
2017-12-20T07:49:36.128Z,1021.04
2017-12-20T07:50:36.048Z,1021.01
2017-12-20T07:51:35.958Z,1021.01
2017-12-20T07:52:35.866Z,1021.04
2017-12-20T07:53:35.773Z,1021.06
2017-12-20T07:54:35.690Z,1021.03
2017-12-20T07:55:35.595Z,1021.04
2017-12-20T07:56:35.532Z,1021.08
2017-12-20T07:57:35.422Z,1021.06
2017-12-20T07:58:35.330Z,1021.01
2017-12-20T07:59:35.243Z,1021.05
2017-12-20T08:00:35.151Z,1021.09
2017-12-20T08:01:35.061Z,1021.10
2017-12-20T08:02:34.972Z,1021.09
2017-12-20T08:03:34.881Z,1021.12
2017-12-20T08:04:34.799Z,1021.10
2017-12-20T08:05:34.702Z,1021.12
2017-12-20T08:06:34.611Z,1021.16
2017-12-20T08:07:34.524Z,1021.13
2017-12-20T08:08:34.433Z,1021.16
2017-12-20T08:09:34.346Z,1021.18
2017-12-20T08:10:34.253Z,1021.14
2017-12-20T08:11:34.172Z,1021.19
2017-12-20T08:12:34.075Z,1021.21
2017-12-20T08:13:33.985Z,1021.23
2017-12-20T08:14:33.906Z,1021.28
2017-12-20T08:15:33.811Z,1021.33
2017-12-20T08:16:33.730Z,1021.27
2017-12-20T08:17:33.640Z,1021.20
2017-12-20T08:18:33.538Z,1021.22
2017-12-20T08:19:33.450Z,1021.26
2017-12-20T08:20:33.363Z,1021.26
2017-12-20T08:21:33.284Z,1021.25
2017-12-20T08:22:33.192Z,1021.27
2017-12-20T08:23:33.097Z,1021.21
2017-12-20T08:24:33.005Z,1021.28
2017-12-20T08:25:32.929Z,1021.25
2017-12-20T08:26:32.846Z,1021.27
2017-12-20T08:27:32.739Z,1021.28
2017-12-20T08:28:32.653Z,1021.24
2017-12-20T08:29:32.566Z,1021.29
2017-12-20T08:30:32.482Z,1021.32
2017-12-20T08:31:32.379Z,1021.27
2017-12-20T08:32:32.284Z,1021.34
2017-12-20T08:33:32.207Z,1021.28
2017-12-20T08:34:32.111Z,1021.27
2017-12-20T08:35:32.022Z,1021.31
2017-12-20T08:36:31.935Z,1021.32
2017-12-20T08:37:31.840Z,1021.30
2017-12-20T08:38:31.751Z,1021.30
2017-12-20T08:39:31.662Z,1021.34
2017-12-20T08:40:31.584Z,1021.35
2017-12-20T08:41:31.490Z,1021.40
2017-12-20T08:42:31.394Z,1021.35
2017-12-20T08:43:31.312Z,1021.31
2017-12-20T08:44:31.239Z,1021.36
2017-12-20T08:45:31.129Z,1021.33
2017-12-20T08:46:31.040Z,1021.38
2017-12-20T08:47:31.257Z,1021.37
2017-12-20T08:48:30.857Z,1021.36
2017-12-20T08:49:30.765Z,1021.34
2017-12-20T08:50:30.679Z,1021.39
2017-12-20T08:51:30.587Z,1021.38
2017-12-20T08:52:30.494Z,1021.41
2017-12-20T08:53:30.408Z,1021.40
2017-12-20T08:54:30.322Z,1021.39
2017-12-20T08:55:30.228Z,1021.41
2017-12-20T08:56:30.140Z,1021.44
2017-12-20T08:57:30.051Z,1021.43
2017-12-20T08:58:29.962Z,1021.44
2017-12-20T08:59:29.873Z,1021.45
2017-12-20T09:00:29.785Z,1021.44
2017-12-20T09:01:29.694Z,1021.45
2017-12-20T09:02:29.610Z,1021.46
2017-12-20T09:03:29.520Z,1021.44
2017-12-20T09:04:29.426Z,1021.48
2017-12-20T09:05:29.336Z,1021.47
2017-12-20T09:06:29.251Z,1021.47
2017-12-20T09:07:29.161Z,1021.47
2017-12-20T09:08:29.076Z,1021.55
2017-12-20T09:09:28.986Z,1021.53
2017-12-20T09:10:28.892Z,1021.55
2017-12-20T09:11:28.802Z,1021.59
2017-12-20T09:12:28.710Z,1021.58
2017-12-20T09:13:28.618Z,1021.62
2017-12-20T09:14:28.545Z,1021.65
2017-12-20T09:15:28.446Z,1021.65
2017-12-20T09:16:28.360Z,1021.65
2017-12-20T09:17:28.270Z,1021.69
2017-12-20T09:18:28.174Z,1021.67
2017-12-20T09:19:28.088Z,1021.71
2017-12-20T09:20:27.998Z,1021.73
2017-12-20T09:21:27.915Z,1021.69
2017-12-20T09:22:27.819Z,1021.70
2017-12-20T09:23:27.735Z,1021.70
2017-12-20T09:24:27.647Z,1021.77
2017-12-20T09:25:27.553Z,1021.77
2017-12-20T09:26:27.470Z,1021.75
2017-12-20T09:27:27.381Z,1021.79
2017-12-20T09:28:27.294Z,1021.71
2017-12-20T09:29:27.198Z,1021.79
2017-12-20T09:30:27.110Z,1021.72
2017-12-20T09:31:27.021Z,1021.80
2017-12-20T09:32:26.931Z,1021.81
2017-12-20T09:33:26.839Z,1021.79
2017-12-20T09:34:26.758Z,1021.80
2017-12-20T09:35:26.668Z,1021.80
2017-12-20T09:36:26.580Z,1021.86
2017-12-20T09:37:26.511Z,1021.84
2017-12-20T09:38:26.398Z,1021.85
2017-12-20T09:39:26.312Z,1021.83
2017-12-20T09:40:26.218Z,1021.83
2017-12-20T09:41:26.134Z,1021.86
2017-12-20T09:42:26.041Z,1021.90
2017-12-20T09:43:25.949Z,1021.88
2017-12-20T09:44:25.863Z,1021.85
2017-12-20T09:45:25.776Z,1021.89
2017-12-20T09:46:25.849Z,1021.90
2017-12-20T09:47:25.602Z,1021.89
2017-12-20T09:48:25.509Z,1021.83
2017-12-20T09:49:25.426Z,1021.80
2017-12-20T09:50:25.388Z,1021.77
2017-12-20T09:51:25.239Z,1021.78
2017-12-20T09:52:25.152Z,1021.81
2017-12-20T09:53:25.098Z,1021.87
2017-12-20T09:54:24.990Z,1021.84
2017-12-20T09:55:24.912Z,1021.83
2017-12-20T09:56:24.795Z,1021.79
2017-12-20T09:57:24.708Z,1021.84
2017-12-20T09:58:24.635Z,1021.86
2017-12-20T09:59:24.528Z,1021.83
2017-12-20T10:00:24.451Z,1021.77
2017-12-20T10:01:24.353Z,1021.84
2017-12-20T10:02:24.278Z,1021.82
2017-12-20T10:03:24.193Z,1021.85
2017-12-20T10:04:24.112Z,1021.87
2017-12-20T10:05:24.000Z,1021.78
2017-12-20T10:06:23.922Z,1021.85
2017-12-20T10:07:23.837Z,1021.83
2017-12-20T10:08:23.736Z,1021.85
2017-12-20T10:09:23.643Z,1021.85
2017-12-20T10:10:23.554Z,1021.79
2017-12-20T10:11:23.467Z,1021.77
2017-12-20T10:12:23.380Z,1021.76
2017-12-20T10:13:23.299Z,1021.78
2017-12-20T10:14:23.204Z,1021.74
2017-12-20T10:15:23.114Z,1021.72
2017-12-20T10:16:23.024Z,1021.76
2017-12-20T10:17:22.940Z,1021.72
2017-12-20T10:18:22.847Z,1021.65
2017-12-20T10:19:22.777Z,1021.65
2017-12-20T10:20:22.679Z,1021.65
2017-12-20T10:21:22.584Z,1021.66
2017-12-20T10:22:22.496Z,1021.64
2017-12-20T10:23:22.414Z,1021.62
2017-12-20T10:24:22.321Z,1021.59
2017-12-20T10:25:22.226Z,1021.62
2017-12-20T10:26:22.140Z,1021.59
2017-12-20T10:27:22.068Z,1021.58
2017-12-20T10:28:21.968Z,1021.60
2017-12-20T10:29:21.891Z,1021.58
2017-12-20T10:30:21.802Z,1021.58
2017-12-20T10:31:21.700Z,1021.59
2017-12-20T10:32:21.617Z,1021.59
2017-12-20T10:33:21.523Z,1021.57
2017-12-20T10:34:21.435Z,1021.55
2017-12-20T10:35:21.354Z,1021.51
2017-12-20T10:36:21.260Z,1021.53
2017-12-20T10:37:21.180Z,1021.58
2017-12-20T10:38:21.088Z,1021.55
2017-12-20T10:39:20.992Z,1021.63
2017-12-20T10:40:20.912Z,1021.63
2017-12-20T10:41:20.829Z,1021.59
2017-12-20T10:42:20.733Z,1021.61
2017-12-20T10:43:20.644Z,1021.60
2017-12-20T10:44:20.555Z,1021.61
2017-12-20T10:45:20.466Z,1021.57
2017-12-20T10:46:20.383Z,1021.56
2017-12-20T10:47:20.290Z,1021.55
2017-12-20T10:48:20.198Z,1021.50
2017-12-20T10:49:20.120Z,1021.52
2017-12-20T10:50:20.024Z,1021.48
2017-12-20T10:51:19.948Z,1021.45
2017-12-20T10:52:19.851Z,1021.43
2017-12-20T10:53:19.761Z,1021.45
2017-12-20T10:54:19.672Z,1021.43
2017-12-20T10:55:19.581Z,1021.47
2017-12-20T10:56:19.502Z,1021.46
2017-12-20T10:57:19.402Z,1021.48
2017-12-20T10:58:19.318Z,1021.50
2017-12-20T10:59:19.239Z,1021.47
2017-12-20T11:00:19.143Z,1021.38
2017-12-20T11:01:19.081Z,1021.40
2017-12-20T11:02:18.968Z,1021.36
2017-12-20T11:03:18.875Z,1021.36
2017-12-20T11:04:18.785Z,1021.35
2017-12-20T11:05:18.707Z,1021.36
2017-12-20T11:06:18.612Z,1021.34
2017-12-20T11:07:18.523Z,1021.25
2017-12-20T11:08:18.435Z,1021.26
2017-12-20T11:09:18.364Z,1021.32
2017-12-20T11:10:18.270Z,1021.28
2017-12-20T11:11:18.172Z,1021.23
2017-12-20T11:12:18.084Z,1021.18
2017-12-20T11:13:17.999Z,1021.26
2017-12-20T11:14:17.909Z,1021.25
2017-12-20T11:15:18.733Z,1021.28
2017-12-20T11:16:17.738Z,1021.25
2017-12-20T11:17:17.649Z,1021.29
2017-12-20T11:18:17.551Z,1021.31
2017-12-20T11:19:17.472Z,1021.28
2017-12-20T11:20:17.385Z,1021.24
2017-12-20T11:21:17.295Z,1021.24
2017-12-20T11:22:17.209Z,1021.22
2017-12-20T11:23:17.145Z,1021.22
2017-12-20T11:24:17.027Z,1021.13
2017-12-20T11:25:16.941Z,1021.14
2017-12-20T11:26:16.858Z,1021.14
2017-12-20T11:27:16.764Z,1021.20
2017-12-20T11:28:16.670Z,1021.14
2017-12-20T11:29:16.590Z,1021.14
2017-12-20T11:30:16.497Z,1021.12
2017-12-20T11:31:16.414Z,1021.12
2017-12-20T11:32:16.328Z,1021.09
2017-12-20T11:33:16.233Z,1021.10
2017-12-20T11:34:16.141Z,1021.06
2017-12-20T11:35:16.060Z,1021.07
2017-12-20T11:36:15.998Z,1021.05
2017-12-20T11:37:15.885Z,1021.06
2017-12-20T11:38:15.791Z,1021.10
2017-12-20T11:39:15.707Z,1021.03
2017-12-20T11:40:15.618Z,1021.02
2017-12-20T11:41:15.522Z,1021.02
2017-12-20T11:42:15.440Z,1021.02
2017-12-20T11:43:15.355Z,1021.01
2017-12-20T11:44:15.264Z,1021.02
2017-12-20T11:45:15.185Z,1021.03
2017-12-20T11:46:15.083Z,1021.02
2017-12-20T11:47:14.994Z,1021.00
2017-12-20T11:48:14.916Z,1021.01
2017-12-20T11:49:14.822Z,1021.03
2017-12-20T11:50:14.726Z,1020.94
2017-12-20T11:51:14.651Z,1020.97
2017-12-20T11:52:14.558Z,1020.99
2017-12-20T11:53:14.473Z,1020.98
2017-12-20T11:54:14.381Z,1020.96
2017-12-20T11:55:14.293Z,1020.96
2017-12-20T11:56:14.201Z,1020.99
2017-12-20T11:57:14.118Z,1020.97
2017-12-20T11:58:14.040Z,1021.02
2017-12-20T11:59:13.942Z,1021.06
2017-12-20T12:00:13.854Z,1021.02
2017-12-20T12:01:13.756Z,1021.01
2017-12-20T12:02:13.675Z,1021.01
2017-12-20T12:03:13.592Z,1020.97
2017-12-20T12:04:13.502Z,1020.98